KLNP

Lonesome Pine Airport

Wise, Virginia, USA
METAR KLNP 232050Z AUTO 29008KT 10SM CLR 16/04 A3019 RMK AO2
Observed Flight Rules
Oct-23 @ 20:50 UTC (40 minutes ago) Visual Flight Rules
Wind Visibility Clouds
290° at 8 knots 10 miles
  • Clear skies
Temperatures Readings
Current 16°C / 61°F
Dewpoint 4°C / 39°F
Humidity 45%
Altimeter 30.19" Hg
Pressure 1022 hPa
Elevation 817
METAR KLNP 232050Z AUTO 29008KT 10SM CLR 16/04 A3019 RMK AO2
Observed Flight Rules
Oct-23 @ 20:50 UTC
(40 minutes ago)
VFR
Wind Visibility
290° at 8 knots 10 miles
Clouds
  • Clear skies
Temperature Dewpoint
16°C / 61°F 4°C / 39°F
Humidity Altimeter Pressure
45% 30.19" Hg 1022 hPa